Arklow Rock — PBZM — position and weather

sailwx.info

Track history (hours):
 
Tides and Currents Weather Stations Pressure Air Temp Water Temp Dewpoint Dewpoint Depression Visibility Wind Speed Wind Dir Waves Ship Positions

Arklow Rock

Last reported at 2014-Oct-31 17:15 UTC. Time now 2014-Nov-01 10:33 UTC.
Position N 55°07' W 007°12'.

Length 90 m; draft 6.1 m.

Type: Cargo ship. MMSI: 246002000.

Date/timePositionNaut miles runAvg speedWind from/ knotsBaromVisibWave heightAir tempDewpointWater temp
2014-Oct-31 17:15N 55°07' W 007°12'20 2.2
2014-Oct-31 08:18N 55°16' W 006°41'10 9.2
2014-Oct-31 07:13N 55°19' W 006°24'6 9.3
2014-Oct-31 06:33N 55°20' W 006°14'9 8.9
2014-Oct-31 05:33N 55°14' W 006°02'21 9.4
2014-Oct-31 03:16N 54°56' W 005°40'6 8.5
2014-Oct-31 02:33N 54°51' W 005°35'8 8.1
2014-Oct-31 01:34N 54°44' W 005°27'8 7.6
2014-Oct-31 00:33N 54°37' W 005°23'8 8.1
2014-Oct-30 23:33N 54°29' W 005°20'9 8.7
2014-Oct-30 22:33N 54°21' W 005°21'38911.1
2014-Oct-29 11:27N 47°52' W 005°59'2110.4
2014-Oct-29 09:29N 47°32' W 005°58'2010.6
2014-Oct-29 07:33N 47°11' W 005°56'1411.8
2014-Oct-29 06:23N 46°57' W 005°55'1011.3
2014-Oct-29 05:28N 46°47' W 005°55'2211.1
2014-Oct-29 03:32N 46°26' W 005°53'1211.4
2014-Oct-29 02:28N 46°13' W 005°51'3611.8
2014-Oct-28 23:23N 45°37' W 005°49'1511.9
2014-Oct-28 22:05N 45°21' W 005°48'611.5
2014-Oct-28 21:32N 45°15' W 005°48'9111.4
2014-Oct-28 13:30N 43°44' W 005°41'1010.4
2014-Oct-28 12:33N 43°34' W 005°41'1 1.0
2014-Oct-28 11:32N 43°34' W 005°42'0 0.0
2014-Oct-28 10:26N 43°34' W 005°42'0 0.0
2014-Oct-28 09:32N 43°34' W 005°42'0 0.0
2014-Oct-28 08:26N 43°34' W 005°42'0 0.0
2014-Oct-28 07:32N 43°34' W 005°42'0 0.0
2014-Oct-28 06:32N 43°34' W 005°42'0 0.0
2014-Oct-28 05:32N 43°34' W 005°42'0 0.0
2014-Oct-28 04:26N 43°34' W 005°42'0 0.0
2014-Oct-28 03:20N 43°34' W 005°42'0 0.0
2014-Oct-28 02:26N 43°34' W 005°42'0 0.0
2014-Oct-28 01:32N 43°34' W 005°42'0 0.0
2014-Oct-28 00:32N 43°34' W 005°42'0 0.0
2014-Oct-27 23:32N 43°34' W 005°42'0 0.0
2014-Oct-27 22:32N 43°34' W 005°42'0 0.0
2014-Oct-27 21:32N 43°34' W 005°42'0 0.0
2014-Oct-27 20:32N 43°34' W 005°42'0 0.0
2014-Oct-27 19:26N 43°34' W 005°42'0 0.0
2014-Oct-27 18:32N 43°34' W 005°42'0 0.0
2014-Oct-27 17:20N 43°34' W 005°42'0 0.0
2014-Oct-27 16:14N 43°34' W 005°42'0 0.0
2014-Oct-27 15:32N 43°34' W 005°42'0 0.0
2014-Oct-27 14:32N 43°34' W 005°42'2 2.3
2014-Oct-27 13:33N 43°36' W 005°41'1 0.5
2014-Oct-27 12:20N 43°36' W 005°41'0 0.1
2014-Oct-27 11:20N 43°36' W 005°41'0 0.0
2014-Oct-27 10:26N 43°36' W 005°41'0 0.0
2014-Oct-27 09:26N 43°36' W 005°41'0 0.0
2014-Oct-27 07:14N 43°36' W 005°41'0 0.0
2014-Oct-27 04:32N 43°36' W 005°41'0 0.0
2014-Oct-27 03:26N 43°36' W 005°41'0 0.0
2014-Oct-27 02:32N 43°36' W 005°41'0 0.0
2014-Oct-27 01:14N 43°36' W 005°41'0 0.0
2014-Oct-27 00:32N 43°36' W 005°41'0 0.0
2014-Oct-26 23:20N 43°36' W 005°41'0 0.0
2014-Oct-26 21:32N 43°36' W 005°41'0 0.0
2014-Oct-26 20:32N 43°36' W 005°41'0 0.0
2014-Oct-26 19:32N 43°36' W 005°41'0 0.0
2014-Oct-26 18:32N 43°36' W 005°41'0 0.0
2014-Oct-26 17:32N 43°36' W 005°41'0 0.0
2014-Oct-26 15:26N 43°36' W 005°41'0 0.0
2014-Oct-26 13:14N 43°36' W 005°41'0 0.0
2014-Oct-26 09:08N 43°36' W 005°41'0 0.0
2014-Oct-26 08:32N 43°36' W 005°41'4 4.6
2014-Oct-26 07:33N 43°39' W 005°46'1111.0
2014-Oct-26 06:33N 43°43' W 006°00'95 2.4
2014-Oct-24 14:22N 44°12' W 008°05'1111.1
2014-Oct-24 13:24N 44°22' W 007°60'467 9.7
2014-Oct-22 13:17N 50°32' W 000°57'2212.5
2014-Oct-22 11:34N 50°42' W 000°27'11 9.7
2014-Oct-22 10:26N 50°50' W 000°15'  
Track history (hours):
 
Tides and Currents Weather Stations Pressure Air Temp Water Temp Dewpoint Dewpoint Depression Visibility Wind Speed Wind Dir Waves Ship Positions

Arklow Rock

Last reported at 2014-Oct-31 17:15 UTC. Time now 2014-Nov-01 10:33 UTC.
Position N 55°07' W 007°12'.

Length 90 m; draft 6.1 m.

Type: Cargo ship. MMSI: 246002000.

Date/timePositionNaut miles runAvg speedWind from/ knotsBaromVisibWave heightAir tempDewpointWater temp
2014-Oct-31 17:15N 55°07' W 007°12'20 2.2
2014-Oct-31 08:18N 55°16' W 006°41'10 9.2
2014-Oct-31 07:13N 55°19' W 006°24'6 9.3
2014-Oct-31 06:33N 55°20' W 006°14'9 8.9
2014-Oct-31 05:33N 55°14' W 006°02'21 9.4
2014-Oct-31 03:16N 54°56' W 005°40'6 8.5
2014-Oct-31 02:33N 54°51' W 005°35'8 8.1
2014-Oct-31 01:34N 54°44' W 005°27'8 7.6
2014-Oct-31 00:33N 54°37' W 005°23'8 8.1
2014-Oct-30 23:33N 54°29' W 005°20'9 8.7
2014-Oct-30 22:33N 54°21' W 005°21'38911.1
2014-Oct-29 11:27N 47°52' W 005°59'2110.4
2014-Oct-29 09:29N 47°32' W 005°58'2010.6
2014-Oct-29 07:33N 47°11' W 005°56'1411.8
2014-Oct-29 06:23N 46°57' W 005°55'1011.3
2014-Oct-29 05:28N 46°47' W 005°55'2211.1
2014-Oct-29 03:32N 46°26' W 005°53'1211.4
2014-Oct-29 02:28N 46°13' W 005°51'3611.8
2014-Oct-28 23:23N 45°37' W 005°49'1511.9
2014-Oct-28 22:05N 45°21' W 005°48'611.5
2014-Oct-28 21:32N 45°15' W 005°48'9111.4
2014-Oct-28 13:30N 43°44' W 005°41'1010.4
2014-Oct-28 12:33N 43°34' W 005°41'1 1.0
2014-Oct-28 11:32N 43°34' W 005°42'0 0.0
2014-Oct-28 10:26N 43°34' W 005°42'0 0.0
2014-Oct-28 09:32N 43°34' W 005°42'0 0.0
2014-Oct-28 08:26N 43°34' W 005°42'0 0.0
2014-Oct-28 07:32N 43°34' W 005°42'0 0.0
2014-Oct-28 06:32N 43°34' W 005°42'0 0.0
2014-Oct-28 05:32N 43°34' W 005°42'0 0.0
2014-Oct-28 04:26N 43°34' W 005°42'0 0.0
2014-Oct-28 03:20N 43°34' W 005°42'0 0.0
2014-Oct-28 02:26N 43°34' W 005°42'0 0.0
2014-Oct-28 01:32N 43°34' W 005°42'0 0.0
2014-Oct-28 00:32N 43°34' W 005°42'0 0.0
2014-Oct-27 23:32N 43°34' W 005°42'0 0.0
2014-Oct-27 22:32N 43°34' W 005°42'0 0.0
2014-Oct-27 21:32N 43°34' W 005°42'0 0.0
2014-Oct-27 20:32N 43°34' W 005°42'0 0.0
2014-Oct-27 19:26N 43°34' W 005°42'0 0.0
2014-Oct-27 18:32N 43°34' W 005°42'0 0.0
2014-Oct-27 17:20N 43°34' W 005°42'0 0.0
2014-Oct-27 16:14N 43°34' W 005°42'0 0.0
2014-Oct-27 15:32N 43°34' W 005°42'0 0.0
2014-Oct-27 14:32N 43°34' W 005°42'2 2.3
2014-Oct-27 13:33N 43°36' W 005°41'1 0.5
2014-Oct-27 12:20N 43°36' W 005°41'0 0.1
2014-Oct-27 11:20N 43°36' W 005°41'0 0.0
2014-Oct-27 10:26N 43°36' W 005°41'0 0.0
2014-Oct-27 09:26N 43°36' W 005°41'0 0.0
2014-Oct-27 07:14N 43°36' W 005°41'0 0.0
2014-Oct-27 04:32N 43°36' W 005°41'0 0.0
2014-Oct-27 03:26N 43°36' W 005°41'0 0.0
2014-Oct-27 02:32N 43°36' W 005°41'0 0.0
2014-Oct-27 01:14N 43°36' W 005°41'0 0.0
2014-Oct-27 00:32N 43°36' W 005°41'0 0.0
2014-Oct-26 23:20N 43°36' W 005°41'0 0.0
2014-Oct-26 21:32N 43°36' W 005°41'0 0.0
2014-Oct-26 20:32N 43°36' W 005°41'0 0.0
2014-Oct-26 19:32N 43°36' W 005°41'0 0.0
2014-Oct-26 18:32N 43°36' W 005°41'0 0.0
2014-Oct-26 17:32N 43°36' W 005°41'0 0.0
2014-Oct-26 15:26N 43°36' W 005°41'0 0.0
2014-Oct-26 13:14N 43°36' W 005°41'0 0.0
2014-Oct-26 09:08N 43°36' W 005°41'0 0.0
2014-Oct-26 08:32N 43°36' W 005°41'4 4.6
2014-Oct-26 07:33N 43°39' W 005°46'1111.0
2014-Oct-26 06:33N 43°43' W 006°00'95 2.4
2014-Oct-24 14:22N 44°12' W 008°05'1111.1
2014-Oct-24 13:24N 44°22' W 007°60'467 9.7
2014-Oct-22 13:17N 50°32' W 000°57'2212.5
2014-Oct-22 11:34N 50°42' W 000°27'11 9.7
2014-Oct-22 10:26N 50°50' W 000°15'  

Dump ship's entire track history